Moneymore, United Kingdom
Current Conditions -  °F | °C
As of 9:20 PM on Saturday 20 Dec 2014 (Local Time) from EGAA Reporting Station
Broken Clouds Broken Clouds  
Wind Chill: 37°   Ceiling: 1600
Heat Index: 43°   Visibility: 6mi
Dew Point: 43°   Wind: 10mph
Humidity: 100%   Direction: 220°SW
Pressure: 30.27"   Gusts: NA
Location:  54.69°N, 6.67°W
Report Text: EGAA 202120Z 22009KT 9999 FEW007 SCT011 BKN016 06/06 Q1025
Loading
Personal Weather Stations






























Interactive Weather Map New forecast layout! Learn more

10-Day Weather Forecast

Advertisements
Track Severe Weather on mobile